createdAt,value
2023-03-28T00:00:37.708Z,102240.91
2023-03-28T00:03:03.513Z,102242.00
2023-03-28T00:05:30.520Z,102239.25
2023-03-28T00:07:56.797Z,102246.44
2023-03-28T00:10:23.111Z,102237.34
2023-03-28T00:12:48.776Z,102250.28
2023-03-28T00:15:14.602Z,102243.94
2023-03-28T00:17:40.880Z,102245.59
2023-03-28T00:20:10.195Z,102245.59
2023-03-28T00:22:37.397Z,102246.44
2023-03-28T00:25:06.210Z,102252.22
2023-03-28T00:27:32.725Z,102254.97
2023-03-28T00:29:59.149Z,102258.56
2023-03-28T00:32:24.901Z,102264.91
2023-03-28T00:34:50.766Z,102264.91
2023-03-28T00:37:16.623Z,102260.50
2023-03-28T00:39:49.156Z,102266.00
2023-03-28T00:42:16.775Z,102264.09
2023-03-28T00:44:50.019Z,102264.91
2023-03-28T00:47:38.023Z,102260.50
2023-03-28T00:50:10.095Z,102262.16
2023-03-28T00:52:39.582Z,102260.50
2023-03-28T00:55:09.630Z,102253.06
2023-03-28T00:57:37.429Z,102256.91
2023-03-28T01:00:05.764Z,102264.91
2023-03-28T01:02:31.577Z,102263.25
2023-03-28T01:05:00.041Z,102260.50
2023-03-28T01:07:25.974Z,102266.00
2023-03-28T01:09:51.695Z,102263.25
2023-03-28T01:12:18.976Z,102264.09
2023-03-28T01:14:44.851Z,102261.56
2023-03-28T01:17:10.642Z,102254.13
2023-03-28T01:20:16.680Z,102259.66
2023-03-28T01:23:11.272Z,102256.06
2023-03-28T01:26:16.728Z,102257.72
2023-03-28T01:29:10.604Z,102248.63
2023-03-28T01:32:06.147Z,102251.38
2023-03-28T01:34:55.758Z,102248.63
2023-03-28T01:37:43.355Z,102241.19
2023-03-28T01:40:24.183Z,102232.06
2023-03-28T01:48:53.929Z,102243.09
2023-03-28T01:54:45.540Z,102234.81
2023-03-28T01:57:20.637Z,102236.75
2023-03-28T01:59:51.234Z,102232.06
2023-03-28T02:02:36.051Z,102240.34
2023-03-28T02:05:06.284Z,102241.19
2023-03-28T02:07:33.031Z,102234.81
2023-03-28T02:09:59.827Z,102231.22
2023-03-28T02:12:30.127Z,102232.06
2023-03-28T02:14:56.685Z,102232.06
2023-03-28T02:17:23.690Z,102234.00
2023-03-28T02:19:57.704Z,102229.31
2023-03-28T02:22:33.129Z,102232.91
2023-03-28T02:24:58.997Z,102224.88
2023-03-28T02:27:24.670Z,102228.47
2023-03-28T02:29:53.494Z,102227.66
2023-03-28T02:32:21.044Z,102231.22
2023-03-28T02:34:48.613Z,102233.16
2023-03-28T02:37:46.844Z,102228.47
2023-03-28T02:40:52.305Z,102229.53
2023-03-28T02:46:19.080Z,102230.41
2023-03-28T02:48:55.095Z,102227.66
2023-03-28T02:51:30.826Z,102228.47
2023-03-28T02:54:08.427Z,102224.88
2023-03-28T02:56:52.064Z,102225.94
2023-03-28T02:59:24.628Z,102224.88
2023-03-28T03:01:50.815Z,102225.94
2023-03-28T03:04:16.558Z,102224.03
2023-03-28T03:06:44.746Z,102220.19
2023-03-28T03:09:11.086Z,102224.88
2023-03-28T03:11:36.745Z,102220.44
2023-03-28T03:14:02.472Z,102221.25
2023-03-28T03:16:28.381Z,102228.47
2023-03-28T03:18:56.091Z,102221.25
2023-03-28T03:21:23.041Z,102228.47
2023-03-28T03:23:49.596Z,102221.25
2023-03-28T03:26:15.413Z,102235.91
2023-03-28T03:28:41.097Z,102232.28
2023-03-28T03:31:07.280Z,102235.91
2023-03-28T03:33:33.193Z,102245.03
2023-03-28T03:35:59.209Z,102237.59
2023-03-28T03:38:25.107Z,102237.81
2023-03-28T03:40:50.761Z,102236.97
2023-03-28T03:43:16.468Z,102241.44
2023-03-28T03:45:45.033Z,102243.31
2023-03-28T03:48:10.798Z,102241.66
2023-03-28T03:50:36.736Z,102244.19
2023-03-28T03:53:02.408Z,102236.97
2023-03-28T03:55:28.070Z,102242.50
2023-03-28T03:57:53.737Z,102244.19
2023-03-28T04:00:19.518Z,102248.00
2023-03-28T04:02:46.050Z,102240.56
2023-03-28T04:05:11.738Z,102250.75
2023-03-28T04:07:37.474Z,102254.63
2023-03-28T04:10:03.924Z,102249.94
2023-03-28T04:12:29.655Z,102249.94
2023-03-28T04:14:55.462Z,102243.31
2023-03-28T04:17:22.446Z,102248.00
2023-03-28T04:19:48.903Z,102246.09
2023-03-28T04:22:17.479Z,102248.00
2023-03-28T04:24:43.911Z,102243.31
2023-03-28T04:27:10.478Z,102251.59
2023-03-28T04:29:36.283Z,102254.34
2023-03-28T04:32:04.930Z,102249.09
2023-03-28T04:34:32.856Z,102246.94
2023-03-28T04:37:00.896Z,102248.84
2023-03-28T04:39:28.412Z,102250.75
2023-03-28T04:41:54.760Z,102254.34
2023-03-28T04:44:21.418Z,102253.53
2023-03-28T04:46:48.184Z,102253.53
2023-03-28T04:49:14.329Z,102255.44
2023-03-28T04:51:40.110Z,102257.13
2023-03-28T04:54:05.772Z,102250.75
2023-03-28T04:56:31.428Z,102247.19
2023-03-28T04:58:57.071Z,102253.53
2023-03-28T05:01:25.154Z,102257.38
2023-03-28T05:03:50.916Z,102259.88
2023-03-28T05:06:17.220Z,102256.28
2023-03-28T05:08:43.689Z,102266.47
2023-03-28T05:11:10.061Z,102265.41
2023-03-28T05:13:35.775Z,102269.03
2023-03-28T05:16:01.528Z,102263.72
2023-03-28T05:18:27.180Z,102272.00
2023-03-28T05:20:52.877Z,102268.41
2023-03-28T05:23:18.530Z,102267.56
2023-03-28T05:25:50.613Z,102264.81
2023-03-28T05:28:16.260Z,102273.09
2023-03-28T05:30:41.904Z,102269.25
2023-03-28T05:33:07.590Z,102268.41
2023-03-28T05:35:33.521Z,102273.09
2023-03-28T05:37:59.192Z,102266.75
2023-03-28T05:40:24.919Z,102277.53
2023-03-28T05:42:50.556Z,102277.53
2023-03-28T05:45:16.364Z,102280.63
2023-03-28T05:47:42.143Z,102280.63
2023-03-28T05:50:08.446Z,102282.56
2023-03-28T05:52:34.424Z,102282.56
2023-03-28T05:55:00.127Z,102278.13
2023-03-28T05:57:25.793Z,102282.81
2023-03-28T05:59:51.468Z,102283.66
2023-03-28T06:02:19.712Z,102282.81
2023-03-28T06:04:45.712Z,102288.91
2023-03-28T06:07:12.766Z,102284.22
2023-03-28T06:09:38.701Z,102293.34
2023-03-28T06:12:05.234Z,102293.34
2023-03-28T06:14:31.148Z,102297.78
2023-03-28T06:16:57.184Z,102297.78
2023-03-28T06:19:23.141Z,102304.16
2023-03-28T06:21:48.907Z,102303.31
2023-03-28T06:24:14.630Z,102305.56
2023-03-28T06:26:40.620Z,102296.47
2023-03-28T06:29:06.343Z,102308.31
2023-03-28T06:31:32.325Z,102301.72
2023-03-28T06:33:58.041Z,102309.16
2023-03-28T06:36:23.907Z,102304.47
2023-03-28T06:38:51.356Z,102312.75
2023-03-28T06:41:17.022Z,102310.00
2023-03-28T06:43:42.661Z,102316.38
2023-03-28T06:46:09.468Z,102311.91
2023-03-28T06:48:36.728Z,102313.63
2023-03-28T06:51:03.196Z,102313.63
2023-03-28T06:53:28.903Z,102323.78
2023-03-28T06:55:54.915Z,102314.69
2023-03-28T06:58:21.948Z,102314.47
2023-03-28T07:00:50.515Z,102315.50
2023-03-28T07:03:16.309Z,102311.91
2023-03-28T07:05:42.944Z,102323.22
2023-03-28T07:08:09.926Z,102321.03
2023-03-28T07:10:36.782Z,102313.00
2023-03-28T07:13:02.895Z,102321.28
2023-03-28T07:15:28.540Z,102330.41
2023-03-28T07:17:54.194Z,102324.88
2023-03-28T07:20:20.765Z,102329.31
2023-03-28T07:22:46.421Z,102322.13
2023-03-28T07:25:12.089Z,102325.72
2023-03-28T07:27:37.781Z,102323.78
2023-03-28T07:30:04.177Z,102326.81
2023-03-28T07:32:38.687Z,102321.28
2023-03-28T07:35:08.925Z,102332.31
2023-03-28T07:37:34.581Z,102337.84
2023-03-28T07:40:00.214Z,102339.75
2023-03-28T07:42:26.361Z,102330.66
2023-03-28T07:44:52.780Z,102337.00
2023-03-28T07:47:18.431Z,102334.25
2023-03-28T07:49:44.568Z,102336.16
2023-03-28T07:52:10.887Z,102345.28
2023-03-28T07:54:36.874Z,102340.84
2023-03-28T07:57:03.071Z,102342.53
2023-03-28T07:59:28.733Z,102348.28
2023-03-28T08:01:54.798Z,102360.16
2023-03-28T08:04:20.471Z,102365.69
2023-03-28T08:06:46.687Z,102367.59
2023-03-28T08:09:14.797Z,102365.69
2023-03-28T08:11:42.066Z,102362.91
2023-03-28T08:14:10.878Z,102361.25
2023-03-28T08:16:36.843Z,102368.44
2023-03-28T08:19:10.586Z,102359.31
2023-03-28T08:21:37.753Z,102360.16
2023-03-28T08:24:04.175Z,102364.22
2023-03-28T08:26:30.072Z,102367.00
2023-03-28T08:28:58.064Z,102361.84
2023-03-28T08:31:26.087Z,102362.66
2023-03-28T08:33:53.070Z,102357.16
2023-03-28T08:36:21.305Z,102362.66
2023-03-28T08:38:49.166Z,102358.81
2023-03-28T08:41:54.662Z,102359.66
2023-03-28T08:44:55.634Z,102359.44
2023-03-28T08:47:26.570Z,102352.97
2023-03-28T08:49:57.258Z,102355.47
2023-03-28T08:52:23.167Z,102355.00
2023-03-28T08:55:28.717Z,102358.81
2023-03-28T08:57:54.883Z,102358.34
2023-03-28T09:00:32.177Z,102361.94
2023-03-28T09:02:58.456Z,102365.06
2023-03-28T09:05:35.661Z,102359.53
2023-03-28T09:08:26.974Z,102357.63
2023-03-28T09:11:12.770Z,102354.84
2023-03-28T09:13:53.353Z,102348.25
2023-03-28T09:16:42.766Z,102344.91
2023-03-28T09:19:17.015Z,102344.66
2023-03-28T09:22:15.130Z,102331.69
2023-03-28T09:25:06.484Z,102334.44
2023-03-28T09:27:47.978Z,102326.19
2023-03-28T09:30:26.612Z,102319.81
2023-03-28T09:32:55.362Z,102312.38
2023-03-28T09:35:22.356Z,102317.91
2023-03-28T09:37:52.057Z,102315.13
2023-03-28T09:40:24.733Z,102307.72
2023-03-28T09:45:40.163Z,102309.63
2023-03-28T09:48:19.763Z,102308.56
2023-03-28T09:50:45.752Z,102312.16
2023-03-28T09:53:20.459Z,102304.72
2023-03-28T09:55:58.101Z,102302.78
2023-03-28T09:58:46.716Z,102303.41
2023-03-28T10:01:48.922Z,102297.88
2023-03-28T10:04:16.960Z,102299.69
2023-03-28T10:06:44.156Z,102295.25
2023-03-28T10:09:23.600Z,102295.25
2023-03-28T10:11:53.648Z,102292.97
2023-03-28T10:14:36.353Z,102283.13
2023-03-28T10:17:07.177Z,102286.72
2023-03-28T10:19:36.315Z,102285.88
2023-03-28T10:22:06.546Z,102287.81
2023-03-28T10:24:32.725Z,102281.44
2023-03-28T10:27:07.414Z,102287.81
2023-03-28T10:29:33.422Z,102286.13
2023-03-28T10:31:59.113Z,102278.69
2023-03-28T10:34:27.675Z,102270.41
2023-03-28T10:36:53.422Z,102264.91
2023-03-28T10:39:22.138Z,102269.31
2023-03-28T10:41:53.378Z,102265.72
2023-03-28T10:44:35.601Z,102260.22
2023-03-28T10:47:05.080Z,102260.22
2023-03-28T10:49:42.506Z,102257.66
2023-03-28T10:52:31.738Z,102252.75
2023-03-28T10:55:18.775Z,102254.69
2023-03-28T10:58:14.074Z,102247.25
2023-03-28T11:00:42.517Z,102252.75
2023-03-28T11:03:10.419Z,102241.72
2023-03-28T11:06:08.049Z,102237.03
2023-03-28T11:08:44.008Z,102228.75
2023-03-28T11:11:35.223Z,102223.25
2023-03-28T11:17:21.521Z,102208.59
2023-03-28T11:20:27.504Z,102212.28
2023-03-28T11:23:06.438Z,102203.53
2023-03-28T11:25:42.956Z,102199.94
2023-03-28T11:28:25.605Z,102198.25
2023-03-28T11:30:55.638Z,102201.25
2023-03-28T11:33:47.250Z,102181.94
2023-03-28T11:36:16.467Z,102184.69
2023-03-28T11:38:48.563Z,102169.81
2023-03-28T11:41:18.151Z,102164.53
2023-03-28T11:43:50.674Z,102177.03
2023-03-28T11:46:30.064Z,102171.72
2023-03-28T11:49:35.596Z,102163.44
2023-03-28T11:52:19.963Z,102157.94
2023-03-28T11:54:53.230Z,102156.88
2023-03-28T11:57:24.359Z,102156.88
2023-03-28T12:00:06.166Z,102156.00
2023-03-28T12:02:41.413Z,102158.53
2023-03-28T12:05:38.511Z,102151.09
2023-03-28T12:08:08.487Z,102144.22
2023-03-28T12:10:36.451Z,102129.34
2023-03-28T12:13:10.804Z,102138.47
2023-03-28T12:15:48.525Z,102123.56
2023-03-28T12:18:57.031Z,102129.84
2023-03-28T12:21:41.749Z,102115.78
2023-03-28T12:24:33.292Z,102104.16
2023-03-28T12:27:16.796Z,102097.56
2023-03-28T12:30:22.070Z,102092.03
2023-03-28T12:32:54.780Z,102089.28
2023-03-28T12:35:30.717Z,102085.41
2023-03-28T12:38:10.465Z,102083.75
2023-03-28T12:40:59.040Z,102085.69
2023-03-28T12:43:58.954Z,102074.63
2023-03-28T12:46:46.838Z,102065.25
2023-03-28T12:49:28.627Z,102061.41
2023-03-28T12:51:56.274Z,102051.47
2023-03-28T12:54:25.744Z,102049.53
2023-03-28T12:57:03.505Z,102040.19
2023-03-28T13:00:09.500Z,102030.81
2023-03-28T13:02:46.296Z,102031.03
2023-03-28T13:05:41.162Z,102035.72
2023-03-28T13:08:40.087Z,102044.84
2023-03-28T13:14:31.934Z,102030.81
2023-03-28T13:17:00.604Z,102026.38
2023-03-28T13:22:41.431Z,102017.84
2023-03-28T13:25:31.492Z,102013.16
2023-03-28T13:28:01.826Z,102007.91
2023-03-28T13:30:29.690Z,102006.22
2023-03-28T13:32:58.998Z,101990.25
2023-03-28T13:35:45.652Z,101996.84
2023-03-28T13:38:14.779Z,101989.66
2023-03-28T13:40:50.247Z,101996.03
2023-03-28T13:43:51.821Z,101995.16
2023-03-28T13:46:19.617Z,101991.34
2023-03-28T13:48:50.752Z,101986.66
2023-03-28T13:51:21.482Z,101975.84
2023-03-28T13:53:48.469Z,101981.38
2023-03-28T13:56:32.683Z,101972.53
2023-03-28T13:58:59.819Z,101963.97
2023-03-28T14:01:32.530Z,101962.03
2023-03-28T14:03:58.242Z,101959.28
2023-03-28T14:06:26.304Z,101960.16
2023-03-28T14:08:54.993Z,101948.25
2023-03-28T14:11:23.518Z,101938.91
2023-03-28T14:13:51.929Z,101931.44
2023-03-28T14:16:18.540Z,101932.53
2023-03-28T14:18:46.604Z,101935.03
2023-03-28T14:21:12.277Z,101928.69
2023-03-28T14:23:39.672Z,101926.75
2023-03-28T14:26:11.489Z,101923.16
2023-03-28T14:28:39.781Z,101912.13
2023-03-28T14:31:05.801Z,101909.38
2023-03-28T14:33:36.275Z,101901.09
2023-03-28T14:36:03.485Z,101894.75
2023-03-28T14:38:33.792Z,101882.00
2023-03-28T14:41:20.403Z,101878.19
2023-03-28T14:43:51.242Z,101869.91
2023-03-28T14:46:21.207Z,101865.22
2023-03-28T14:48:46.990Z,101871.56
2023-03-28T14:51:13.172Z,101869.06
2023-03-28T14:53:42.005Z,101864.59
2023-03-28T14:56:10.613Z,101856.34
2023-03-28T14:58:37.811Z,101848.06
2023-03-28T15:01:05.349Z,101847.22
2023-03-28T15:03:34.108Z,101843.38
2023-03-28T15:06:00.178Z,101841.69
2023-03-28T15:08:30.836Z,101841.69
2023-03-28T15:11:02.628Z,101838.13
2023-03-28T15:13:35.478Z,101830.94
2023-03-28T15:16:01.524Z,101825.41
2023-03-28T15:18:29.474Z,101827.34
2023-03-28T15:20:59.207Z,101817.13
2023-03-28T15:23:29.070Z,101821.56
2023-03-28T15:25:56.414Z,101810.78
2023-03-28T15:28:24.734Z,101802.50
2023-03-28T15:30:50.432Z,101784.00
2023-03-28T15:33:19.441Z,101782.09
2023-03-28T15:35:46.044Z,101775.72
2023-03-28T15:40:49.284Z,101764.69
2023-03-28T15:43:36.643Z,101755.81
2023-03-28T15:46:07.726Z,101756.69
2023-03-28T15:48:34.967Z,101760.28
2023-03-28T15:51:04.117Z,101746.47
2023-03-28T15:53:30.079Z,101750.06
2023-03-28T15:55:58.995Z,101743.72
2023-03-28T15:58:24.770Z,101739.25
2023-03-28T16:00:52.150Z,101737.38
2023-03-28T16:03:26.300Z,101726.31
2023-03-28T16:05:59.732Z,101728.22
2023-03-28T16:08:34.027Z,101723.56
2023-03-28T16:11:00.649Z,101718.28
2023-03-28T16:13:27.598Z,101718.28
2023-03-28T16:15:53.376Z,101712.78
2023-03-28T16:18:19.206Z,101724.41
2023-03-28T16:20:45.724Z,101724.63
2023-03-28T16:23:12.505Z,101720.22
2023-03-28T16:25:39.596Z,101706.41
2023-03-28T16:28:05.254Z,101703.66
2023-03-28T16:30:35.962Z,101705.59
2023-03-28T16:33:01.734Z,101703.66
2023-03-28T16:35:27.878Z,101703.66
2023-03-28T16:37:54.310Z,101703.66
2023-03-28T16:40:20.927Z,101701.16
2023-03-28T16:42:46.654Z,101700.06
2023-03-28T16:45:13.412Z,101689.31
2023-03-28T16:47:39.947Z,101693.72
2023-03-28T16:50:07.826Z,101693.72
2023-03-28T16:52:38.433Z,101691.19
2023-03-28T16:55:06.625Z,101677.41
2023-03-28T16:57:32.380Z,101679.34
2023-03-28T16:59:58.021Z,101680.44
2023-03-28T17:02:23.765Z,101676.56
2023-03-28T17:04:50.184Z,101680.44
2023-03-28T17:07:16.670Z,101683.19
2023-03-28T17:09:42.372Z,101677.69
2023-03-28T17:12:08.757Z,101682.91
2023-03-28T17:14:35.288Z,101676.84
2023-03-28T17:17:01.331Z,101682.09
2023-03-28T17:19:28.165Z,101681.25
2023-03-28T17:21:55.715Z,101685.94
2023-03-28T17:24:22.712Z,101684.03
2023-03-28T17:26:48.836Z,101682.38
2023-03-28T17:29:15.277Z,101681.53
2023-03-28T17:31:41.963Z,101684.03
2023-03-28T17:34:08.476Z,101685.13
2023-03-28T17:36:34.563Z,101683.47
2023-03-28T17:39:01.188Z,101685.41
2023-03-28T17:41:27.384Z,101678.78
2023-03-28T17:43:55.003Z,101678.78
2023-03-28T17:46:21.406Z,101675.19
2023-03-28T17:48:47.692Z,101674.34
2023-03-28T17:51:13.398Z,101676.00
2023-03-28T17:53:40.240Z,101676.28
2023-03-28T17:56:07.783Z,101671.59
2023-03-28T17:58:33.801Z,101672.44
2023-03-28T18:00:59.487Z,101669.66
2023-03-28T18:03:25.924Z,101674.34
2023-03-28T18:05:59.384Z,101679.03
2023-03-28T18:08:26.449Z,101677.13
2023-03-28T18:10:52.409Z,101677.13
2023-03-28T18:13:18.208Z,101687.31
2023-03-28T18:15:43.866Z,101678.19
2023-03-28T18:18:11.804Z,101685.41
2023-03-28T18:20:38.730Z,101690.91
2023-03-28T18:23:04.373Z,101683.69
2023-03-28T18:25:33.102Z,101688.16
2023-03-28T18:27:59.039Z,101689.22
2023-03-28T18:30:24.881Z,101682.63
2023-03-28T18:32:50.526Z,101677.34
2023-03-28T18:35:16.406Z,101675.44
2023-03-28T18:37:42.055Z,101685.41
2023-03-28T18:40:10.217Z,101685.63
2023-03-28T18:42:36.128Z,101690.31
2023-03-28T18:45:02.764Z,101690.09
2023-03-28T18:47:28.450Z,101689.22
2023-03-28T18:49:54.123Z,101690.31
2023-03-28T18:52:21.000Z,101703.28
2023-03-28T18:54:47.245Z,101705.78
2023-03-28T18:57:12.977Z,101698.59
2023-03-28T18:59:39.597Z,101697.50
2023-03-28T19:02:07.745Z,101699.44
2023-03-28T19:04:33.837Z,101699.44
2023-03-28T19:06:59.490Z,101706.03
2023-03-28T19:09:25.473Z,101712.41
2023-03-28T19:11:51.670Z,101706.03
2023-03-28T19:14:17.557Z,101708.81
2023-03-28T19:16:43.220Z,101708.81
2023-03-28T19:19:09.172Z,101713.50
2023-03-28T19:21:34.845Z,101717.91
2023-03-28T19:24:00.591Z,101721.78
2023-03-28T19:26:26.480Z,101724.25
2023-03-28T19:28:52.697Z,101719.00
2023-03-28T19:31:20.946Z,101717.09
2023-03-28T19:33:46.823Z,101724.53
2023-03-28T19:36:12.593Z,101728.94
2023-03-28T19:38:39.299Z,101716.25
2023-03-28T19:41:09.756Z,101713.50
2023-03-28T19:43:36.429Z,101699.69
2023-03-28T19:46:04.135Z,101701.63
2023-03-28T19:48:30.750Z,101692.53
2023-03-28T19:50:56.898Z,101695.28
2023-03-28T19:53:22.646Z,101687.84
2023-03-28T19:55:51.360Z,101675.97
2023-03-28T19:58:17.003Z,101669.63
2023-03-28T20:00:42.657Z,101664.94
2023-03-28T20:03:08.388Z,101659.41
2023-03-28T20:05:39.776Z,101656.66
2023-03-28T20:08:05.421Z,101665.13
2023-03-28T20:10:31.197Z,101664.09
2023-03-28T20:12:56.833Z,101655.81
2023-03-28T20:15:22.493Z,101660.47
2023-03-28T20:17:48.166Z,101666.84
2023-03-28T20:20:14.474Z,101659.63
2023-03-28T20:22:40.146Z,101653.91
2023-03-28T20:25:06.365Z,101657.72
2023-03-28T20:27:32.126Z,101659.63
2023-03-28T20:29:57.813Z,101656.84
2023-03-28T20:32:23.497Z,101664.09
2023-03-28T20:34:49.160Z,101661.34
2023-03-28T20:37:16.530Z,101659.41
2023-03-28T20:39:47.477Z,101650.31
2023-03-28T20:42:13.151Z,101645.00
2023-03-28T20:44:38.790Z,101643.06
2023-03-28T20:47:06.784Z,101646.69
2023-03-28T20:49:33.331Z,101652.19
2023-03-28T20:51:59.056Z,101645.00
2023-03-28T20:54:26.989Z,101637.81
2023-03-28T20:56:53.193Z,101626.50
2023-03-28T20:59:19.203Z,101624.84
2023-03-28T21:01:46.949Z,101621.00
2023-03-28T21:04:13.668Z,101629.28
2023-03-28T21:06:39.323Z,101621.00
2023-03-28T21:09:07.256Z,101604.44
2023-03-28T21:11:34.683Z,101611.88
2023-03-28T21:14:01.008Z,101600.84
2023-03-28T21:16:27.789Z,101589.81
2023-03-28T21:18:53.478Z,101588.16
2023-03-28T21:21:20.059Z,101577.13
2023-03-28T21:23:46.186Z,101578.78
2023-03-28T21:26:15.339Z,101575.19
2023-03-28T21:28:41.091Z,101570.78
2023-03-28T21:31:10.133Z,101573.25
2023-03-28T21:33:36.882Z,101566.09
2023-03-28T21:36:06.381Z,101557.81
2023-03-28T21:38:32.566Z,101563.31
2023-03-28T21:40:58.223Z,101552.28
2023-03-28T21:43:23.977Z,101556.97
2023-03-28T21:45:49.936Z,101554.78
2023-03-28T21:48:16.023Z,101559.75
2023-03-28T21:50:47.894Z,101550.63
2023-03-28T21:53:13.539Z,101548.69
2023-03-28T21:55:39.167Z,101547.59
2023-03-28T21:58:04.821Z,101550.63
2023-03-28T22:00:30.572Z,101553.38
2023-03-28T22:02:56.295Z,101550.63
2023-03-28T22:05:29.376Z,101547.88
2023-03-28T22:07:55.818Z,101541.53
2023-03-28T22:10:25.613Z,101547.03
2023-03-28T22:12:57.834Z,101538.78
2023-03-28T22:15:23.780Z,101534.09
2023-03-28T22:17:49.443Z,101533.25
2023-03-28T22:20:15.281Z,101536.00
2023-03-28T22:22:44.034Z,101531.31
2023-03-28T22:25:11.867Z,101524.97
2023-03-28T22:27:38.623Z,101522.47
2023-03-28T22:30:05.366Z,101507.59
2023-03-28T22:32:31.277Z,101502.06
2023-03-28T22:34:56.953Z,101504.84
2023-03-28T22:37:22.768Z,101504.84
2023-03-28T22:39:48.410Z,101503.16
2023-03-28T22:42:14.095Z,101489.34
2023-03-28T22:44:39.913Z,101483.84
2023-03-28T22:47:05.549Z,101481.06
2023-03-28T22:49:33.246Z,101478.31
2023-03-28T22:52:02.784Z,101479.16
2023-03-28T22:54:29.877Z,101476.38
2023-03-28T22:56:56.358Z,101479.16
2023-03-28T22:59:22.579Z,101473.63
2023-03-28T23:01:48.498Z,101474.72
2023-03-28T23:04:14.178Z,101477.50
2023-03-28T23:06:40.664Z,101481.06
2023-03-28T23:09:07.624Z,101471.97
2023-03-28T23:11:34.801Z,101467.28
2023-03-28T23:14:00.813Z,101462.03
2023-03-28T23:16:26.969Z,101457.34
2023-03-28T23:18:52.898Z,101452.94
2023-03-28T23:21:18.613Z,101446.31
2023-03-28T23:23:45.667Z,101451.84
2023-03-28T23:26:12.391Z,101445.50
2023-03-28T23:28:38.396Z,101434.44
2023-03-28T23:31:04.838Z,101425.06
2023-03-28T23:33:30.837Z,101418.72
2023-03-28T23:35:56.608Z,101414.03
2023-03-28T23:38:22.386Z,101415.16
2023-03-28T23:40:48.048Z,101410.44
2023-03-28T23:43:13.741Z,101393.06
2023-03-28T23:45:39.549Z,101397.75
2023-03-28T23:48:08.319Z,101393.06
2023-03-28T23:50:34.534Z,101402.19
2023-03-28T23:53:00.302Z,101393.06
2023-03-28T23:55:26.219Z,101386.44
2023-03-28T23:57:55.094Z,101379.28
